Weather at South Brook Seaplane Base

Public forecast

Using degrees Celsius for public forecast. Weather courtesy of forecast.io.

Closest aviation weather report (METAR) to South Brook Seaplane Base

Report is more than 6 hours old.

Closest report is Deer Lake Airport, 15.0 nm (27.9 km) NE.

2022/11/14 15:00 (retrieved 2 years ago)

CYDF 141500Z 05018G24KT 10SM -PLSN BKN017 OVC028 00/00 A2964 RMK SC6SC2 SLP042

Closest aviation forecast (TAF) to South Brook Seaplane Base

Forecast is more than 12 hours old.

Closest forecast is Deer Lake Airport, 15.0 nm (27.9 km) NE.

2023/02/22 20:42 (retrieved 1 year ago)

TAF CYDF 221940Z 2220/2308 VRB03KT P6SM OVC025 TEMPO 2220/2221 OVC020 FM222100 26010KT P6SM -SHSN OVC020 TEMPO 2221/2308 P6SM NSW BKN025 BECMG 2222/2224 26015G25KT RMK NXT FCST BY 230200Z